sensor_id;sensor_type;location;lat;lon;timestamp;temperature;humidity
17154;DHT22;8692;52.164;7.558;2022-11-20T00:02:05;-2.20;99.90
17154;DHT22;8692;52.164;7.558;2022-11-20T00:04:33;-2.30;99.90
17154;DHT22;8692;52.164;7.558;2022-11-20T00:07:01;-2.30;99.90
17154;DHT22;8692;52.164;7.558;2022-11-20T00:09:33;-2.30;99.90
17154;DHT22;8692;52.164;7.558;2022-11-20T00:12:01;-2.30;99.90
17154;DHT22;8692;52.164;7.558;2022-11-20T00:14:32;-2.30;99.90
17154;DHT22;8692;52.164;7.558;2022-11-20T00:17:02;-2.30;99.90
17154;DHT22;8692;52.164;7.558;2022-11-20T00:19:30;-2.30;99.90
17154;DHT22;8692;52.164;7.558;2022-11-20T00:21:59;-2.30;99.90
17154;DHT22;8692;52.164;7.558;2022-11-20T00:24:27;-2.40;99.90
17154;DHT22;8692;52.164;7.558;2022-11-20T00:26:56;-2.40;99.90
17154;DHT22;8692;52.164;7.558;2022-11-20T00:29:24;-2.40;99.90
17154;DHT22;8692;52.164;7.558;2022-11-20T00:31:52;-2.40;99.90
17154;DHT22;8692;52.164;7.558;2022-11-20T00:34:23;-2.40;99.90
17154;DHT22;8692;52.164;7.558;2022-11-20T00:36:51;-2.40;99.90
17154;DHT22;8692;52.164;7.558;2022-11-20T00:39:21;-2.40;99.90
17154;DHT22;8692;52.164;7.558;2022-11-20T00:41:49;-2.40;99.90
17154;DHT22;8692;52.164;7.558;2022-11-20T00:44:19;-2.40;99.90
17154;DHT22;8692;52.164;7.558;2022-11-20T00:46:47;-2.50;99.90
17154;DHT22;8692;52.164;7.558;2022-11-20T00:49:17;-2.50;99.90
17154;DHT22;8692;52.164;7.558;2022-11-20T00:51:46;-2.50;99.90
17154;DHT22;8692;52.164;7.558;2022-11-20T00:54:14;-2.50;99.90
17154;DHT22;8692;52.164;7.558;2022-11-20T00:56:42;-2.50;99.90
17154;DHT22;8692;52.164;7.558;2022-11-20T00:59:11;-2.50;99.90
17154;DHT22;8692;52.164;7.558;2022-11-20T01:01:40;-2.50;99.90
17154;DHT22;8692;52.164;7.558;2022-11-20T01:04:08;-2.60;99.90
17154;DHT22;8692;52.164;7.558;2022-11-20T01:06:38;-2.60;99.90
17154;DHT22;8692;52.164;7.558;2022-11-20T01:09:07;-2.60;99.90
17154;DHT22;8692;52.164;7.558;2022-11-20T01:11:40;-2.60;99.90
17154;DHT22;8692;52.164;7.558;2022-11-20T01:14:11;-2.60;99.90
17154;DHT22;8692;52.164;7.558;2022-11-20T01:16:43;-2.60;99.90
17154;DHT22;8692;52.164;7.558;2022-11-20T01:19:13;-2.70;99.90
17154;DHT22;8692;52.164;7.558;2022-11-20T01:21:45;-2.70;99.90
17154;DHT22;8692;52.164;7.558;2022-11-20T01:24:16;-2.70;99.90
17154;DHT22;8692;52.164;7.558;2022-11-20T01:26:47;-2.70;99.90
17154;DHT22;8692;52.164;7.558;2022-11-20T01:29:17;-2.70;99.90
17154;DHT22;8692;52.164;7.558;2022-11-20T01:31:50;-2.70;99.90
17154;DHT22;8692;52.164;7.558;2022-11-20T01:34:20;-2.70;99.90
17154;DHT22;8692;52.164;7.558;2022-11-20T01:36:49;-2.70;99.90
17154;DHT22;8692;52.164;7.558;2022-11-20T01:39:19;-2.80;99.90
17154;DHT22;8692;52.164;7.558;2022-11-20T01:41:50;-2.70;99.90
17154;DHT22;8692;52.164;7.558;2022-11-20T01:44:58;-2.80;99.90
17154;DHT22;8692;52.164;7.558;2022-11-20T01:47:35;-2.80;99.90
17154;DHT22;8692;52.164;7.558;2022-11-20T02:33:15;-3.10;99.90
17154;DHT22;8692;52.164;7.558;2022-11-20T02:35:44;-3.10;99.90
17154;DHT22;8692;52.164;7.558;2022-11-20T02:38:15;-3.10;99.90
17154;DHT22;8692;52.164;7.558;2022-11-20T02:40:43;-3.10;99.90
17154;DHT22;8692;52.164;7.558;2022-11-20T02:43:11;-3.10;99.90
17154;DHT22;8692;52.164;7.558;2022-11-20T02:45:39;-3.10;99.90
17154;DHT22;8692;52.164;7.558;2022-11-20T02:48:07;-3.10;99.90
17154;DHT22;8692;52.164;7.558;2022-11-20T02:50:39;-3.10;99.90
17154;DHT22;8692;52.164;7.558;2022-11-20T02:53:08;-3.10;99.90
17154;DHT22;8692;52.164;7.558;2022-11-20T02:55:38;-3.10;99.90
17154;DHT22;8692;52.164;7.558;2022-11-20T02:58:06;-3.10;99.90
17154;DHT22;8692;52.164;7.558;2022-11-20T03:00:34;-3.20;99.90
17154;DHT22;8692;52.164;7.558;2022-11-20T03:03:02;-3.20;99.90
17154;DHT22;8692;52.164;7.558;2022-11-20T03:05:30;-3.20;99.90
17154;DHT22;8692;52.164;7.558;2022-11-20T03:08:00;-3.20;99.90
17154;DHT22;8692;52.164;7.558;2022-11-20T03:10:28;-3.20;99.90
17154;DHT22;8692;52.164;7.558;2022-11-20T03:12:56;-3.20;99.90
17154;DHT22;8692;52.164;7.558;2022-11-20T03:15:25;-3.20;99.90
17154;DHT22;8692;52.164;7.558;2022-11-20T03:17:55;-3.20;99.90
17154;DHT22;8692;52.164;7.558;2022-11-20T03:20:24;-3.30;99.90
17154;DHT22;8692;52.164;7.558;2022-11-20T03:22:54;-3.20;99.90
17154;DHT22;8692;52.164;7.558;2022-11-20T03:25:24;-3.30;99.90
17154;DHT22;8692;52.164;7.558;2022-11-20T03:27:54;-3.30;99.90
17154;DHT22;8692;52.164;7.558;2022-11-20T03:30:25;-3.30;99.90
17154;DHT22;8692;52.164;7.558;2022-11-20T03:32:56;-3.30;99.90
17154;DHT22;8692;52.164;7.558;2022-11-20T03:35:24;-3.30;99.90
17154;DHT22;8692;52.164;7.558;2022-11-20T03:37:53;-3.30;99.90
17154;DHT22;8692;52.164;7.558;2022-11-20T03:40:24;-3.30;99.90
17154;DHT22;8692;52.164;7.558;2022-11-20T03:42:54;-3.30;99.90
17154;DHT22;8692;52.164;7.558;2022-11-20T03:45:25;-3.40;99.90
17154;DHT22;8692;52.164;7.558;2022-11-20T03:47:55;-3.40;99.90
17154;DHT22;8692;52.164;7.558;2022-11-20T03:50:23;-3.40;99.90
17154;DHT22;8692;52.164;7.558;2022-11-20T03:52:51;-3.40;99.90
17154;DHT22;8692;52.164;7.558;2022-11-20T03:55:19;-3.40;99.90
17154;DHT22;8692;52.164;7.558;2022-11-20T03:57:49;-3.40;99.90
17154;DHT22;8692;52.164;7.558;2022-11-20T04:00:17;-3.40;99.90
17154;DHT22;8692;52.164;7.558;2022-11-20T04:02:45;-3.40;99.90
17154;DHT22;8692;52.164;7.558;2022-11-20T04:05:16;-3.40;99.90
17154;DHT22;8692;52.164;7.558;2022-11-20T04:07:44;-3.40;99.90
17154;DHT22;8692;52.164;7.558;2022-11-20T04:10:14;-3.40;99.90
17154;DHT22;8692;52.164;7.558;2022-11-20T04:12:42;-3.40;99.90
17154;DHT22;8692;52.164;7.558;2022-11-20T04:15:12;-3.50;99.90
17154;DHT22;8692;52.164;7.558;2022-11-20T04:17:40;-3.50;99.90
17154;DHT22;8692;52.164;7.558;2022-11-20T04:20:11;-3.50;99.90
17154;DHT22;8692;52.164;7.558;2022-11-20T04:22:39;-3.50;99.90
17154;DHT22;8692;52.164;7.558;2022-11-20T04:25:08;-3.50;99.90
17154;DHT22;8692;52.164;7.558;2022-11-20T04:27:36;-3.60;99.90
17154;DHT22;8692;52.164;7.558;2022-11-20T04:30:05;-3.60;99.90
17154;DHT22;8692;52.164;7.558;2022-11-20T04:32:37;-3.60;99.90
17154;DHT22;8692;52.164;7.558;2022-11-20T04:35:05;-3.60;99.90
17154;DHT22;8692;52.164;7.558;2022-11-20T04:37:35;-3.60;99.90
17154;DHT22;8692;52.164;7.558;2022-11-20T04:40:04;-3.60;99.90
17154;DHT22;8692;52.164;7.558;2022-11-20T04:42:33;-3.60;99.90
17154;DHT22;8692;52.164;7.558;2022-11-20T04:45:01;-3.60;99.90
17154;DHT22;8692;52.164;7.558;2022-11-20T04:47:31;-3.60;99.90
17154;DHT22;8692;52.164;7.558;2022-11-20T04:50:00;-3.60;99.90
17154;DHT22;8692;52.164;7.558;2022-11-20T04:52:29;-3.70;99.90
17154;DHT22;8692;52.164;7.558;2022-11-20T04:54:57;-3.70;99.90
17154;DHT22;8692;52.164;7.558;2022-11-20T04:57:25;-3.70;99.90
17154;DHT22;8692;52.164;7.558;2022-11-20T04:59:53;-3.70;99.90
17154;DHT22;8692;52.164;7.558;2022-11-20T05:02:23;-3.70;99.90
17154;DHT22;8692;52.164;7.558;2022-11-20T05:04:54;-3.70;99.90
17154;DHT22;8692;52.164;7.558;2022-11-20T05:07:26;-3.70;99.90
17154;DHT22;8692;52.164;7.558;2022-11-20T05:09:56;-3.70;99.90
17154;DHT22;8692;52.164;7.558;2022-11-20T05:12:24;-3.80;99.90
17154;DHT22;8692;52.164;7.558;2022-11-20T05:14:53;-3.80;99.90
17154;DHT22;8692;52.164;7.558;2022-11-20T05:17:21;-3.80;99.90
17154;DHT22;8692;52.164;7.558;2022-11-20T05:19:49;-3.80;99.90
17154;DHT22;8692;52.164;7.558;2022-11-20T05:22:19;-3.80;99.90
17154;DHT22;8692;52.164;7.558;2022-11-20T05:24:48;-3.80;99.90
17154;DHT22;8692;52.164;7.558;2022-11-20T05:27:18;-3.90;99.90
17154;DHT22;8692;52.164;7.558;2022-11-20T05:29:49;-3.90;99.90
17154;DHT22;8692;52.164;7.558;2022-11-20T05:32:17;-3.90;99.90
17154;DHT22;8692;52.164;7.558;2022-11-20T05:34:45;-3.90;99.90
17154;DHT22;8692;52.164;7.558;2022-11-20T05:37:13;-3.90;99.90
17154;DHT22;8692;52.164;7.558;2022-11-20T05:39:41;-3.90;99.90
17154;DHT22;8692;52.164;7.558;2022-11-20T05:42:11;-3.90;99.90
17154;DHT22;8692;52.164;7.558;2022-11-20T05:44:57;-4.00;99.90
17154;DHT22;8692;52.164;7.558;2022-11-20T05:47:25;-4.00;99.90
17154;DHT22;8692;52.164;7.558;2022-11-20T05:49:53;-4.00;99.90
17154;DHT22;8692;52.164;7.558;2022-11-20T05:52:23;-4.00;99.90
17154;DHT22;8692;52.164;7.558;2022-11-20T05:54:51;-4.00;99.90
17154;DHT22;8692;52.164;7.558;2022-11-20T05:57:21;-4.00;99.90
17154;DHT22;8692;52.164;7.558;2022-11-20T05:59:51;-4.00;99.90
17154;DHT22;8692;52.164;7.558;2022-11-20T06:02:19;-4.00;99.90
17154;DHT22;8692;52.164;7.558;2022-11-20T06:04:47;-4.00;99.90
17154;DHT22;8692;52.164;7.558;2022-11-20T06:07:17;-4.00;99.90
17154;DHT22;8692;52.164;7.558;2022-11-20T06:09:45;-4.00;99.90
17154;DHT22;8692;52.164;7.558;2022-11-20T06:12:14;-4.00;99.90
17154;DHT22;8692;52.164;7.558;2022-11-20T06:14:43;-4.00;99.90
17154;DHT22;8692;52.164;7.558;2022-11-20T06:17:13;-4.00;99.90
17154;DHT22;8692;52.164;7.558;2022-11-20T06:19:41;-4.00;99.90
17154;DHT22;8692;52.164;7.558;2022-11-20T06:22:10;-4.00;99.90
17154;DHT22;8692;52.164;7.558;2022-11-20T06:24:38;-4.00;99.90
17154;DHT22;8692;52.164;7.558;2022-11-20T06:27:06;-4.00;99.90
17154;DHT22;8692;52.164;7.558;2022-11-20T06:29:34;-3.90;99.90
17154;DHT22;8692;52.164;7.558;2022-11-20T06:32:04;-3.90;99.90
17154;DHT22;8692;52.164;7.558;2022-11-20T06:34:32;-4.00;99.90
17154;DHT22;8692;52.164;7.558;2022-11-20T06:37:00;-4.00;99.90
17154;DHT22;8692;52.164;7.558;2022-11-20T06:39:28;-4.00;99.90
17154;DHT22;8692;52.164;7.558;2022-11-20T06:41:56;-4.00;99.90
17154;DHT22;8692;52.164;7.558;2022-11-20T06:44:25;-4.00;99.90
17154;DHT22;8692;52.164;7.558;2022-11-20T06:46:55;-4.00;99.90
17154;DHT22;8692;52.164;7.558;2022-11-20T06:49:25;-4.00;99.90
17154;DHT22;8692;52.164;7.558;2022-11-20T06:51:53;-4.00;99.90
17154;DHT22;8692;52.164;7.558;2022-11-20T06:54:24;-4.00;99.90
17154;DHT22;8692;52.164;7.558;2022-11-20T06:56:52;-4.00;99.90
17154;DHT22;8692;52.164;7.558;2022-11-20T06:59:20;-4.00;99.90
17154;DHT22;8692;52.164;7.558;2022-11-20T07:01:48;-3.90;99.90
17154;DHT22;8692;52.164;7.558;2022-11-20T07:04:16;-4.00;99.90
17154;DHT22;8692;52.164;7.558;2022-11-20T07:06:46;-3.90;99.90
17154;DHT22;8692;52.164;7.558;2022-11-20T07:09:15;-4.00;99.90
17154;DHT22;8692;52.164;7.558;2022-11-20T07:11:44;-4.00;99.90
17154;DHT22;8692;52.164;7.558;2022-11-20T07:14:14;-4.00;99.90
17154;DHT22;8692;52.164;7.558;2022-11-20T07:16:42;-3.90;99.90
17154;DHT22;8692;52.164;7.558;2022-11-20T07:19:10;-3.90;99.90
17154;DHT22;8692;52.164;7.558;2022-11-20T07:21:38;-4.00;99.90
17154;DHT22;8692;52.164;7.558;2022-11-20T07:24:10;-4.00;99.90
17154;DHT22;8692;52.164;7.558;2022-11-20T07:26:41;-4.00;99.90
17154;DHT22;8692;52.164;7.558;2022-11-20T07:29:10;-4.00;99.90
17154;DHT22;8692;52.164;7.558;2022-11-20T07:31:40;-4.00;99.90
17154;DHT22;8692;52.164;7.558;2022-11-20T07:34:08;-4.00;99.90
17154;DHT22;8692;52.164;7.558;2022-11-20T07:36:36;-4.00;99.90
17154;DHT22;8692;52.164;7.558;2022-11-20T07:39:04;-4.00;99.90
17154;DHT22;8692;52.164;7.558;2022-11-20T07:41:36;-3.90;99.90
17154;DHT22;8692;52.164;7.558;2022-11-20T07:44:06;-3.90;99.90
17154;DHT22;8692;52.164;7.558;2022-11-20T07:46:37;-4.00;99.90
17154;DHT22;8692;52.164;7.558;2022-11-20T07:49:05;-3.90;99.90
17154;DHT22;8692;52.164;7.558;2022-11-20T07:51:35;-4.00;99.90
17154;DHT22;8692;52.164;7.558;2022-11-20T07:54:05;-3.90;99.90
17154;DHT22;8692;52.164;7.558;2022-11-20T07:56:34;-3.90;99.90
17154;DHT22;8692;52.164;7.558;2022-11-20T07:59:03;-3.90;99.90
17154;DHT22;8692;52.164;7.558;2022-11-20T08:01:31;-3.90;99.90
17154;DHT22;8692;52.164;7.558;2022-11-20T08:03:59;-3.90;99.90
17154;DHT22;8692;52.164;7.558;2022-11-20T08:06:27;-3.80;99.90
17154;DHT22;8692;52.164;7.558;2022-11-20T08:08:56;-3.80;99.90
17154;DHT22;8692;52.164;7.558;2022-11-20T08:11:24;-3.80;99.90
17154;DHT22;8692;52.164;7.558;2022-11-20T08:14:11;-3.80;99.90
17154;DHT22;8692;52.164;7.558;2022-11-20T08:16:40;-3.70;99.90
17154;DHT22;8692;52.164;7.558;2022-11-20T08:19:08;-3.70;99.90
17154;DHT22;8692;52.164;7.558;2022-11-20T08:21:38;-3.70;99.90
17154;DHT22;8692;52.164;7.558;2022-11-20T08:24:07;-3.70;99.90
17154;DHT22;8692;52.164;7.558;2022-11-20T08:26:39;-3.60;99.90
17154;DHT22;8692;52.164;7.558;2022-11-20T08:29:07;-3.60;99.90
17154;DHT22;8692;52.164;7.558;2022-11-20T08:31:37;-3.60;99.90
17154;DHT22;8692;52.164;7.558;2022-11-20T08:34:07;-3.50;99.90
17154;DHT22;8692;52.164;7.558;2022-11-20T08:36:38;-3.50;99.90
17154;DHT22;8692;52.164;7.558;2022-11-20T08:39:06;-3.40;99.90
17154;DHT22;8692;52.164;7.558;2022-11-20T08:41:34;-3.40;99.90
17154;DHT22;8692;52.164;7.558;2022-11-20T08:44:05;-3.30;99.90
17154;DHT22;8692;52.164;7.558;2022-11-20T08:46:38;-3.30;99.90
17154;DHT22;8692;52.164;7.558;2022-11-20T08:49:11;-3.20;99.90
17154;DHT22;8692;52.164;7.558;2022-11-20T08:51:40;-3.20;99.90
17154;DHT22;8692;52.164;7.558;2022-11-20T08:54:08;-3.10;99.90
17154;DHT22;8692;52.164;7.558;2022-11-20T08:56:37;-3.00;99.90
17154;DHT22;8692;52.164;7.558;2022-11-20T08:59:05;-3.00;99.90
17154;DHT22;8692;52.164;7.558;2022-11-20T09:01:54;-2.90;99.90
17154;DHT22;8692;52.164;7.558;2022-11-20T09:04:22;-2.80;99.90
17154;DHT22;8692;52.164;7.558;2022-11-20T09:06:51;-2.70;99.90
17154;DHT22;8692;52.164;7.558;2022-11-20T09:09:19;-2.70;99.90
17154;DHT22;8692;52.164;7.558;2022-11-20T09:11:47;-2.60;99.90
17154;DHT22;8692;52.164;7.558;2022-11-20T09:14:16;-2.50;99.90
17154;DHT22;8692;52.164;7.558;2022-11-20T09:16:45;-2.40;99.90
17154;DHT22;8692;52.164;7.558;2022-11-20T09:19:15;-2.30;99.90
17154;DHT22;8692;52.164;7.558;2022-11-20T09:22:03;-2.20;99.90
17154;DHT22;8692;52.164;7.558;2022-11-20T09:24:33;-2.20;99.90
17154;DHT22;8692;52.164;7.558;2022-11-20T09:27:03;-2.10;99.90
17154;DHT22;8692;52.164;7.558;2022-11-20T09:29:31;-2.00;99.90
17154;DHT22;8692;52.164;7.558;2022-11-20T09:32:00;-1.90;99.90
17154;DHT22;8692;52.164;7.558;2022-11-20T09:34:29;-1.80;99.90
17154;DHT22;8692;52.164;7.558;2022-11-20T09:37:00;-1.80;99.90
17154;DHT22;8692;52.164;7.558;2022-11-20T09:39:35;-1.70;99.90
17154;DHT22;8692;52.164;7.558;2022-11-20T09:42:18;-1.60;99.90
17154;DHT22;8692;52.164;7.558;2022-11-20T09:45:21;-1.50;99.90
17154;DHT22;8692;52.164;7.558;2022-11-20T09:48:01;-1.40;99.90
17154;DHT22;8692;52.164;7.558;2022-11-20T09:50:35;-1.40;99.90
17154;DHT22;8692;52.164;7.558;2022-11-20T09:53:13;-1.30;99.90
17154;DHT22;8692;52.164;7.558;2022-11-20T09:55:45;-1.20;99.90
17154;DHT22;8692;52.164;7.558;2022-11-20T09:58:22;-1.20;99.90
17154;DHT22;8692;52.164;7.558;2022-11-20T10:00:53;-1.10;99.90
17154;DHT22;8692;52.164;7.558;2022-11-20T10:03:34;-1.10;99.90
17154;DHT22;8692;52.164;7.558;2022-11-20T10:06:10;-1.00;99.90
17154;DHT22;8692;52.164;7.558;2022-11-20T10:08:43;-0.90;99.90
17154;DHT22;8692;52.164;7.558;2022-11-20T10:11:19;-0.80;99.90
17154;DHT22;8692;52.164;7.558;2022-11-20T10:13:55;-0.80;99.90
17154;DHT22;8692;52.164;7.558;2022-11-20T10:16:32;-0.70;99.90
17154;DHT22;8692;52.164;7.558;2022-11-20T10:19:18;-0.60;99.90
17154;DHT22;8692;52.164;7.558;2022-11-20T10:22:00;-0.50;99.90
17154;DHT22;8692;52.164;7.558;2022-11-20T10:24:38;-0.50;99.90
17154;DHT22;8692;52.164;7.558;2022-11-20T10:27:22;-0.40;99.90
17154;DHT22;8692;52.164;7.558;2022-11-20T10:30:03;-0.40;99.90
17154;DHT22;8692;52.164;7.558;2022-11-20T10:32:38;-0.30;99.90
17154;DHT22;8692;52.164;7.558;2022-11-20T10:35:19;-0.30;99.90
17154;DHT22;8692;52.164;7.558;2022-11-20T10:37:53;-0.20;99.90
17154;DHT22;8692;52.164;7.558;2022-11-20T10:40:31;-0.10;99.90
17154;DHT22;8692;52.164;7.558;2022-11-20T10:43:12;-0.10;99.90
17154;DHT22;8692;52.164;7.558;2022-11-20T10:45:48;-0.10;99.90
17154;DHT22;8692;52.164;7.558;2022-11-20T10:48:21;0.00;99.90
17154;DHT22;8692;52.164;7.558;2022-11-20T10:50:57;0.10;99.90
17154;DHT22;8692;52.164;7.558;2022-11-20T10:53:40;0.10;99.90
17154;DHT22;8692;52.164;7.558;2022-11-20T10:56:17;0.20;99.90
17154;DHT22;8692;52.164;7.558;2022-11-20T10:58:58;0.20;99.90
17154;DHT22;8692;52.164;7.558;2022-11-20T11:01:29;0.30;99.90
17154;DHT22;8692;52.164;7.558;2022-11-20T11:03:58;0.30;99.90
17154;DHT22;8692;52.164;7.558;2022-11-20T11:06:33;0.40;99.90
17154;DHT22;8692;52.164;7.558;2022-11-20T11:09:08;0.40;99.90
17154;DHT22;8692;52.164;7.558;2022-11-20T11:11:38;0.50;99.90
17154;DHT22;8692;52.164;7.558;2022-11-20T11:14:07;0.60;99.90
17154;DHT22;8692;52.164;7.558;2022-11-20T11:16:35;0.60;99.90
17154;DHT22;8692;52.164;7.558;2022-11-20T11:19:13;0.70;99.90
17154;DHT22;8692;52.164;7.558;2022-11-20T11:21:47;0.70;99.90
17154;DHT22;8692;52.164;7.558;2022-11-20T11:24:24;0.80;99.90
17154;DHT22;8692;52.164;7.558;2022-11-20T11:27:12;0.80;99.90
17154;DHT22;8692;52.164;7.558;2022-11-20T11:29:44;0.80;99.90
17154;DHT22;8692;52.164;7.558;2022-11-20T11:32:17;0.80;99.90
17154;DHT22;8692;52.164;7.558;2022-11-20T11:34:59;0.90;99.90
17154;DHT22;8692;52.164;7.558;2022-11-20T11:37:32;0.90;99.90
17154;DHT22;8692;52.164;7.558;2022-11-20T11:40:04;0.90;99.90
17154;DHT22;8692;52.164;7.558;2022-11-20T11:42:58;1.00;99.90
17154;DHT22;8692;52.164;7.558;2022-11-20T11:45:28;1.00;99.90
17154;DHT22;8692;52.164;7.558;2022-11-20T11:48:01;1.00;99.90
17154;DHT22;8692;52.164;7.558;2022-11-20T11:50:31;1.00;99.90
17154;DHT22;8692;52.164;7.558;2022-11-20T11:53:08;1.10;99.90
17154;DHT22;8692;52.164;7.558;2022-11-20T11:55:42;1.10;99.90
17154;DHT22;8692;52.164;7.558;2022-11-20T11:58:20;1.20;99.90
17154;DHT22;8692;52.164;7.558;2022-11-20T12:00:57;1.20;99.90
17154;DHT22;8692;52.164;7.558;2022-11-20T12:03:30;1.30;99.90
17154;DHT22;8692;52.164;7.558;2022-11-20T12:06:05;1.30;99.90
17154;DHT22;8692;52.164;7.558;2022-11-20T12:08:41;1.30;99.90
17154;DHT22;8692;52.164;7.558;2022-11-20T12:11:16;1.30;99.90
17154;DHT22;8692;52.164;7.558;2022-11-20T12:13:49;1.30;99.90
17154;DHT22;8692;52.164;7.558;2022-11-20T12:16:20;1.40;99.90
17154;DHT22;8692;52.164;7.558;2022-11-20T12:18:52;1.50;99.90
17154;DHT22;8692;52.164;7.558;2022-11-20T12:21:28;1.60;99.90
17154;DHT22;8692;52.164;7.558;2022-11-20T12:24:09;1.70;99.90
17154;DHT22;8692;52.164;7.558;2022-11-20T12:26:49;1.80;99.90
17154;DHT22;8692;52.164;7.558;2022-11-20T12:29:29;1.90;99.90
17154;DHT22;8692;52.164;7.558;2022-11-20T12:32:30;2.00;99.90
17154;DHT22;8692;52.164;7.558;2022-11-20T12:35:25;2.10;99.90
17154;DHT22;8692;52.164;7.558;2022-11-20T12:38:12;2.20;99.90
17154;DHT22;8692;52.164;7.558;2022-11-20T12:40:51;2.30;99.90
17154;DHT22;8692;52.164;7.558;2022-11-20T12:43:27;2.40;99.90
17154;DHT22;8692;52.164;7.558;2022-11-20T12:46:23;2.50;99.90
17154;DHT22;8692;52.164;7.558;2022-11-20T12:52:07;2.50;99.90
17154;DHT22;8692;52.164;7.558;2022-11-20T12:55:01;2.60;99.90
17154;DHT22;8692;52.164;7.558;2022-11-20T12:57:39;2.60;99.90
17154;DHT22;8692;52.164;7.558;2022-11-20T13:00:15;2.60;99.90
17154;DHT22;8692;52.164;7.558;2022-11-20T13:03:20;2.70;99.90
17154;DHT22;8692;52.164;7.558;2022-11-20T13:05:59;2.80;99.90
17154;DHT22;8692;52.164;7.558;2022-11-20T13:08:35;2.80;99.90
17154;DHT22;8692;52.164;7.558;2022-11-20T13:11:12;2.90;99.90
17154;DHT22;8692;52.164;7.558;2022-11-20T13:13:49;2.90;99.90
17154;DHT22;8692;52.164;7.558;2022-11-20T13:16:31;2.90;99.90
17154;DHT22;8692;52.164;7.558;2022-11-20T13:19:04;2.90;99.90
17154;DHT22;8692;52.164;7.558;2022-11-20T13:21:37;2.80;99.90
17154;DHT22;8692;52.164;7.558;2022-11-20T13:24:21;2.80;99.90
17154;DHT22;8692;52.164;7.558;2022-11-20T13:27:18;2.80;99.90
17154;DHT22;8692;52.164;7.558;2022-11-20T13:30:10;2.80;99.90
17154;DHT22;8692;52.164;7.558;2022-11-20T13:32:51;2.80;99.90
17154;DHT22;8692;52.164;7.558;2022-11-20T13:35:30;2.80;99.90
17154;DHT22;8692;52.164;7.558;2022-11-20T13:38:01;2.80;99.90
17154;DHT22;8692;52.164;7.558;2022-11-20T13:40:33;2.80;99.90
17154;DHT22;8692;52.164;7.558;2022-11-20T13:43:07;2.80;99.90
17154;DHT22;8692;52.164;7.558;2022-11-20T13:45:38;2.70;99.90
17154;DHT22;8692;52.164;7.558;2022-11-20T13:48:20;2.70;99.90
17154;DHT22;8692;52.164;7.558;2022-11-20T13:51:07;2.70;99.90
17154;DHT22;8692;52.164;7.558;2022-11-20T13:54:09;2.60;99.90
17154;DHT22;8692;52.164;7.558;2022-11-20T13:56:54;2.60;99.90
17154;DHT22;8692;52.164;7.558;2022-11-20T13:59:42;2.60;99.90
17154;DHT22;8692;52.164;7.558;2022-11-20T14:02:14;2.60;99.90
17154;DHT22;8692;52.164;7.558;2022-11-20T14:04:47;2.70;99.90
17154;DHT22;8692;52.164;7.558;2022-11-20T14:07:16;2.60;99.90
17154;DHT22;8692;52.164;7.558;2022-11-20T14:09:51;2.60;99.90
17154;DHT22;8692;52.164;7.558;2022-11-20T14:12:21;2.60;99.90
17154;DHT22;8692;52.164;7.558;2022-11-20T14:14:53;2.60;99.90
17154;DHT22;8692;52.164;7.558;2022-11-20T14:17:24;2.60;99.90
17154;DHT22;8692;52.164;7.558;2022-11-20T14:19:59;2.60;99.90
17154;DHT22;8692;52.164;7.558;2022-11-20T14:22:31;2.50;99.90
17154;DHT22;8692;52.164;7.558;2022-11-20T14:25:04;2.50;99.90
17154;DHT22;8692;52.164;7.558;2022-11-20T14:27:37;2.50;99.90
17154;DHT22;8692;52.164;7.558;2022-11-20T14:30:13;2.50;99.90
17154;DHT22;8692;52.164;7.558;2022-11-20T14:32:42;2.40;99.90
17154;DHT22;8692;52.164;7.558;2022-11-20T14:35:16;2.40;99.90
17154;DHT22;8692;52.164;7.558;2022-11-20T14:37:48;2.40;99.90
17154;DHT22;8692;52.164;7.558;2022-11-20T14:40:25;2.40;99.90
17154;DHT22;8692;52.164;7.558;2022-11-20T14:42:54;2.40;99.90
17154;DHT22;8692;52.164;7.558;2022-11-20T14:45:25;2.40;99.90
17154;DHT22;8692;52.164;7.558;2022-11-20T14:47:55;2.30;99.90
17154;DHT22;8692;52.164;7.558;2022-11-20T14:50:26;2.30;99.90
17154;DHT22;8692;52.164;7.558;2022-11-20T14:52:57;2.30;99.90
17154;DHT22;8692;52.164;7.558;2022-11-20T14:55:32;2.30;99.90
17154;DHT22;8692;52.164;7.558;2022-11-20T14:58:02;2.30;99.90
17154;DHT22;8692;52.164;7.558;2022-11-20T15:00:34;2.20;99.90
17154;DHT22;8692;52.164;7.558;2022-11-20T15:03:02;2.30;99.90
17154;DHT22;8692;52.164;7.558;2022-11-20T15:05:46;2.20;99.90
17154;DHT22;8692;52.164;7.558;2022-11-20T15:08:17;2.20;99.90
17154;DHT22;8692;52.164;7.558;2022-11-20T15:10:49;2.20;99.90
17154;DHT22;8692;52.164;7.558;2022-11-20T15:13:24;2.20;99.90
17154;DHT22;8692;52.164;7.558;2022-11-20T15:15:57;2.20;99.90
17154;DHT22;8692;52.164;7.558;2022-11-20T15:18:29;2.20;99.90
17154;DHT22;8692;52.164;7.558;2022-11-20T15:21:03;2.20;99.90
17154;DHT22;8692;52.164;7.558;2022-11-20T15:23:34;2.20;99.90
17154;DHT22;8692;52.164;7.558;2022-11-20T15:26:05;2.20;99.90
17154;DHT22;8692;52.164;7.558;2022-11-20T15:28:36;2.20;99.90
17154;DHT22;8692;52.164;7.558;2022-11-20T15:31:06;2.20;99.90
17154;DHT22;8692;52.164;7.558;2022-11-20T15:33:37;2.20;99.90
17154;DHT22;8692;52.164;7.558;2022-11-20T15:36:06;2.20;99.90
17154;DHT22;8692;52.164;7.558;2022-11-20T15:38:35;2.10;99.90
17154;DHT22;8692;52.164;7.558;2022-11-20T15:41:03;2.10;99.90
17154;DHT22;8692;52.164;7.558;2022-11-20T15:43:31;2.10;99.90
17154;DHT22;8692;52.164;7.558;2022-11-20T15:46:00;2.20;99.90
17154;DHT22;8692;52.164;7.558;2022-11-20T15:48:34;2.20;99.90
17154;DHT22;8692;52.164;7.558;2022-11-20T15:51:21;2.20;99.90
17154;DHT22;8692;52.164;7.558;2022-11-20T15:53:52;2.20;99.90
17154;DHT22;8692;52.164;7.558;2022-11-20T15:56:22;2.20;99.90
17154;DHT22;8692;52.164;7.558;2022-11-20T15:58:52;2.20;99.90
17154;DHT22;8692;52.164;7.558;2022-11-20T16:01:21;2.20;99.90
17154;DHT22;8692;52.164;7.558;2022-11-20T16:04:12;2.20;99.90
17154;DHT22;8692;52.164;7.558;2022-11-20T16:07:36;2.20;99.90
17154;DHT22;8692;52.164;7.558;2022-11-20T16:10:07;2.20;99.90
17154;DHT22;8692;52.164;7.558;2022-11-20T16:12:37;2.20;99.90
17154;DHT22;8692;52.164;7.558;2022-11-20T16:15:25;2.20;99.90
17154;DHT22;8692;52.164;7.558;2022-11-20T16:18:13;2.20;99.90
17154;DHT22;8692;52.164;7.558;2022-11-20T16:20:42;2.20;99.90
17154;DHT22;8692;52.164;7.558;2022-11-20T16:23:14;2.20;99.90
17154;DHT22;8692;52.164;7.558;2022-11-20T16:25:46;2.10;99.90
17154;DHT22;8692;52.164;7.558;2022-11-20T16:28:15;2.20;99.90
17154;DHT22;8692;52.164;7.558;2022-11-20T16:30:47;2.20;99.90
17154;DHT22;8692;52.164;7.558;2022-11-20T16:33:16;2.20;99.90
17154;DHT22;8692;52.164;7.558;2022-11-20T16:35:45;2.20;99.90
17154;DHT22;8692;52.164;7.558;2022-11-20T16:38:14;2.20;99.90
17154;DHT22;8692;52.164;7.558;2022-11-20T16:40:44;2.20;99.90
17154;DHT22;8692;52.164;7.558;2022-11-20T16:43:13;2.20;99.90
17154;DHT22;8692;52.164;7.558;2022-11-20T16:45:43;2.20;99.90
17154;DHT22;8692;52.164;7.558;2022-11-20T16:48:14;2.20;99.90
17154;DHT22;8692;52.164;7.558;2022-11-20T16:50:46;2.20;99.90
17154;DHT22;8692;52.164;7.558;2022-11-20T16:53:20;2.20;99.90
17154;DHT22;8692;52.164;7.558;2022-11-20T16:55:51;2.20;99.90
17154;DHT22;8692;52.164;7.558;2022-11-20T16:58:21;2.20;99.90
17154;DHT22;8692;52.164;7.558;2022-11-20T17:00:50;2.30;99.90
17154;DHT22;8692;52.164;7.558;2022-11-20T17:03:20;2.30;99.90
17154;DHT22;8692;52.164;7.558;2022-11-20T17:05:48;2.30;99.90
17154;DHT22;8692;52.164;7.558;2022-11-20T17:08:16;2.30;99.90
17154;DHT22;8692;52.164;7.558;2022-11-20T17:10:46;2.30;99.90
17154;DHT22;8692;52.164;7.558;2022-11-20T17:13:14;2.30;99.90